Flight Track Log - Related Links

Times and Time Zones

All times are in EDT time to prevent confusion due to time zone crossing. See the CHQ6401 flight status page for this flight to view local times or setup timezone preferences in your user account.

Time Position Orientation Groundspeed Altitude Reporting Facility
EDT Latitude Longitude Course Direction KTS MPH feet Rate Location/Type
Tue 05:18:43 PM 42.2017 -83.3553 178° South 162 186 1,100  Level Cleveland Center
Tue 05:19:50 PM 42.1433 -83.3528 178° South 204 235 3,200 1,875 Climbing Cleveland Center
Tue 05:20:51 PM 42.0831 -83.3475 176° South 238 274 5,100 1,967 Climbing Cleveland Center
Tue 05:21:52 PM 42.0300 -83.2919 142° Southeast 279 321 7,200 1,881 Climbing Cleveland Center
Tue 05:23:05 PM 42.0722 -83.1819 63° Northeast 296 341 9,300 1,366 Climbing Cleveland Center
Tue 05:23:55 PM 42.1014 -83.0964 65° Northeast 300 345 10,000 703 Climbing Cleveland Center
Tue 05:24:56 PM 42.1472 -82.9917 59° Northeast 377 434 10,600 1,091 Climbing Cleveland Center
Tue 05:25:56 PM 42.1956 -82.8703 62° Northeast 377 434 12,200 1,563 Climbing Cleveland Center
Tue 05:26:55 PM 42.2458 -82.7542 60° Northeast 364 419 13,700 1,210 Climbing Cleveland Center
Tue 05:27:55 PM 42.2939 -82.6294 62° Northeast 364 419 14,600 900 Climbing Cleveland Center
Tue 05:28:55 PM 42.3442 -82.5047 61° Northeast 369 425 15,500 1,050 Climbing Cleveland Center
Tue 05:29:55 PM 42.3650 -82.3619 79° East 369 425 16,700 1,200 Climbing Cleveland Center
Tue 05:30:55 PM 42.3592 -82.2017 93° East 390 449 17,900 1,300 Climbing Cleveland Center
Tue 05:31:55 PM 42.3511 -82.0272 94° East 420 483 19,300 1,100 Climbing Cleveland Center
Tue 05:32:55 PM 42.3444 -81.8867 94° East 420 483 20,100 950 Climbing Cleveland Center
Tue 05:33:55 PM 42.3356 -81.7292 94° East 427 491 21,200 1,050 Climbing Cleveland Center
Tue 05:34:55 PM 42.3289 -81.5661 93° East 427 491 22,200 1,050 Climbing Cleveland Center
Tue 05:35:55 PM 42.3217 -81.4003 93° East 433 498 23,300 1,050 Climbing Cleveland Center
Tue 05:36:55 PM 42.3125 -81.2317 94° East 443 510 24,300 1,000 Climbing Cleveland Center
Tue 05:37:55 PM 42.3031 -81.0464 94° East 450 518 25,300 1,000 Climbing Cleveland Center
Tue 05:38:55 PM 42.2953 -80.8778 87° East 450 518 26,300 1,050 Climbing Cleveland Center
Tue 05:39:55 PM 42.2975 -80.7067 89° East 457 526 27,400 1,050 Climbing Cleveland Center
Tue 05:40:55 PM 42.3206 -80.5494 79° East 446 513 28,400 800 Climbing Cleveland Center
Tue 05:41:55 PM 42.3433 -80.3894 79° East 436 502 29,000 300 Climbing Cleveland Center
Tue 05:42:55 PM 42.3658 -80.2206 80° East 436 502 29,000  Level Cleveland Center
Tue 05:43:55 PM 42.3881 -80.0464 80° East 463 533 29,000  Level Cleveland Center
Tue 05:44:55 PM 42.4122 -79.8689 79° East 468 539 29,000  Level Cleveland Center
Tue 05:45:55 PM 42.4358 -79.6886 80° East 473 544 29,000  Level Cleveland Center
Tue 05:46:56 PM 42.4594 -79.5136 80° East 478 550 29,000  Level Cleveland Center
Tue 05:47:55 PM 42.4847 -79.3275 80° East 484 557 29,000  Level Cleveland Center
Tue 05:48:55 PM 42.5200 -79.1494 75° East 484 557 29,000  Level Cleveland Center
Tue 05:49:55 PM 42.5553 -78.9767 74° East 479 551 29,000  Level Cleveland Center
Tue 05:50:55 PM 42.5925 -78.8064 73° East 479 551 29,000 -350 Level Cleveland Center
Tue 05:51:55 PM 42.6250 -78.6306 76° East 479 551 28,300 -600 Descending Cleveland Center
Tue 05:52:55 PM 42.6617 -78.4600 74° East 479 551 27,800 -750 Descending Cleveland Center
Tue 05:53:55 PM 42.6939 -78.2894 76° East 479 551 26,800 -950 Descending Cleveland Center
Tue 05:54:55 PM 42.7278 -78.1214 75° East 474 545 25,900 -1,350 Descending Cleveland Center
Tue 05:55:55 PM 42.7636 -77.9475 74° East 468 539 24,100 -1,884 Descending Cleveland Center
Tue 05:56:56 PM 42.7972 -77.7761 75° East 468 539 22,100 -2,000 Descending Cleveland Center
Tue 05:57:55 PM 42.8283 -77.6106 76° East 463 533 20,100 -2,100 Descending Cleveland Center
Tue 05:58:56 PM 42.8597 -77.4506 75° East 450 518 17,900 -1,900 Descending Cleveland Center
Tue 05:59:55 PM 42.8850 -77.3131 76° East 434 499 16,300 -1,765 Descending Cleveland Center
Tue 06:00:55 PM 42.9158 -77.1583 75° East 422 486 14,400 -1,407 Descending Cleveland Center
Tue 06:03:24 PM 42.9883 -76.7919 75° East 378 435 11,400 -1,200 Descending Boston Center
Tue 06:04:25 PM 43.0242 -76.6753 67° East 314 361 10,200 -1,388 Descending Boston Center
Tue 06:05:25 PM 43.0633 -76.5669 64° Northeast 293 337 8,600 -1,587 Descending Boston Center
Tue 06:06:26 PM 43.0961 -76.4669 66° East 285 328 7,000 -1,623 Descending Boston Center
Tue 06:07:27 PM 43.1308 -76.3725 63° Northeast 277 319 5,300 -992 Descending Boston Center
Tue 06:08:27 PM 43.1589 -76.2831 67° East 260 299 5,000 -149 Descending Boston Center
Tue 06:09:28 PM 43.1811 -76.1819 73° East 273 314 5,000 -645 Level Boston Center
Tue 06:10:28 PM 43.1886 -76.0797 84° East 270 311 3,700 -1,190 Descending Boston Center
Tue 06:11:29 PM 43.1978 -75.9806 83° East 253 291 2,600 -738 Descending Boston Center
Tue 06:12:30 PM 43.1942 -75.9006 94° East 205 236 2,200 -393 Descending Boston Center

Login

Don't have an account? Register now (free) for customized features, flight alerts, and more!